createdAt,value
2018-12-02T00:01:45.538Z,99737.22
2018-12-02T00:04:14.710Z,99733.67
2018-12-02T00:06:43.880Z,99738.64
2018-12-02T00:09:13.387Z,99739.50
2018-12-02T00:11:42.692Z,99745.47
2018-12-02T00:14:13.057Z,99739.65
2018-12-02T00:16:42.137Z,99742.81
2018-12-02T00:19:11.503Z,99744.50
2018-12-02T00:21:40.846Z,99743.92
2018-12-02T00:24:14.043Z,99746.82
2018-12-02T00:26:44.476Z,99742.70
2018-12-02T00:29:13.760Z,99744.91
2018-12-02T00:31:42.978Z,99748.83
2018-12-02T00:34:13.310Z,99738.27
2018-12-02T00:36:45.024Z,99743.05
2018-12-02T00:39:14.365Z,99738.38
2018-12-02T00:41:46.056Z,99728.02
2018-12-02T00:44:15.561Z,99717.23
2018-12-02T00:46:46.271Z,99712.23
2018-12-02T00:49:15.530Z,99704.37
2018-12-02T00:51:46.807Z,99704.67
2018-12-02T00:54:16.033Z,99707.31
2018-12-02T00:56:45.309Z,99702.92
2018-12-02T00:59:14.623Z,99702.86
2018-12-02T01:01:43.818Z,99696.52
2018-12-02T01:04:13.129Z,99694.05
2018-12-02T01:06:42.658Z,99693.33
2018-12-02T01:09:11.878Z,99692.82
2018-12-02T01:11:41.036Z,99708.01
2018-12-02T01:14:10.911Z,99699.73
2018-12-02T01:16:40.023Z,99693.88
2018-12-02T01:19:09.205Z,99699.02
2018-12-02T01:21:38.526Z,99699.02
2018-12-02T01:24:07.656Z,99702.48
2018-12-02T01:26:38.358Z,99698.52
2018-12-02T01:29:07.935Z,99694.33
2018-12-02T01:31:38.628Z,99698.89
2018-12-02T01:34:08.536Z,99696.86
2018-12-02T01:36:39.138Z,99699.48
2018-12-02T01:39:10.020Z,99699.22
2018-12-02T01:41:39.251Z,99687.87
2018-12-02T01:44:08.474Z,99694.73
2018-12-02T01:46:40.225Z,99687.43
2018-12-02T01:49:09.397Z,99686.14
2018-12-02T01:51:38.832Z,99677.94
2018-12-02T01:54:08.059Z,99686.66
2018-12-02T01:56:37.339Z,99686.45
2018-12-02T01:59:07.597Z,99684.72
2018-12-02T02:01:36.742Z,99678.63
2018-12-02T02:04:06.347Z,99683.97
2018-12-02T02:06:35.578Z,99685.95
2018-12-02T02:09:05.002Z,99686.57
2018-12-02T02:11:34.099Z,99692.01
2018-12-02T02:14:03.308Z,99696.45
2018-12-02T02:16:32.642Z,99686.88
2018-12-02T02:19:01.785Z,99686.70
2018-12-02T02:21:31.002Z,99690.97
2018-12-02T02:24:00.108Z,99694.65
2018-12-02T02:26:29.274Z,99690.19
2018-12-02T02:28:58.714Z,99686.84
2018-12-02T02:31:27.861Z,99688.91
2018-12-02T02:33:56.989Z,99690.88
2018-12-02T02:36:26.263Z,99689.91
2018-12-02T02:38:55.435Z,99678.95
2018-12-02T02:41:24.601Z,99680.92
2018-12-02T02:43:53.848Z,99672.79
2018-12-02T02:46:22.959Z,99680.94
2018-12-02T02:48:52.172Z,99687.91
2018-12-02T02:51:21.400Z,99683.88
2018-12-02T02:53:50.468Z,99676.59
2018-12-02T02:56:19.638Z,99677.31
2018-12-02T02:58:49.217Z,99683.33
2018-12-02T03:01:18.277Z,99684.17
2018-12-02T03:03:47.384Z,99680.77
2018-12-02T03:06:16.739Z,99684.85
2018-12-02T03:08:45.861Z,99688.05
2018-12-02T03:11:14.930Z,99685.77
2018-12-02T03:13:44.374Z,99681.91
2018-12-02T03:16:13.499Z,99681.42
2018-12-02T03:18:42.570Z,99682.13
2018-12-02T03:21:11.846Z,99683.02
2018-12-02T03:23:40.815Z,99689.30
2018-12-02T03:26:09.837Z,99692.42
2018-12-02T03:28:38.932Z,99686.97
2018-12-02T03:31:08.005Z,99688.00
2018-12-02T03:33:37.143Z,99689.91
2018-12-02T03:36:06.319Z,99696.22
2018-12-02T03:38:35.420Z,99691.02
2018-12-02T03:41:04.592Z,99695.83
2018-12-02T03:43:33.688Z,99695.98
2018-12-02T03:46:02.870Z,99692.82
2018-12-02T03:48:31.972Z,99696.77
2018-12-02T03:51:01.067Z,99690.86
2018-12-02T03:53:30.187Z,99691.56
2018-12-02T03:55:59.279Z,99695.20
2018-12-02T03:58:28.617Z,99699.83
2018-12-02T04:00:57.649Z,99694.27
2018-12-02T04:03:26.838Z,99695.95
2018-12-02T04:05:56.223Z,99698.39
2018-12-02T04:08:25.336Z,99685.53
2018-12-02T04:10:54.883Z,99682.17
2018-12-02T04:13:24.117Z,99680.85
2018-12-02T04:15:53.993Z,99678.16
2018-12-02T04:18:23.231Z,99683.23
2018-12-02T04:20:52.431Z,99677.59
2018-12-02T04:23:21.628Z,99678.12
2018-12-02T04:25:50.886Z,99670.77
2018-12-02T04:28:20.217Z,99667.19
2018-12-02T04:30:49.361Z,99671.14
2018-12-02T04:33:18.443Z,99669.83
2018-12-02T04:35:48.051Z,99675.45
2018-12-02T04:38:17.248Z,99677.84
2018-12-02T04:40:46.428Z,99676.08
2018-12-02T04:43:15.525Z,99678.05
2018-12-02T04:45:44.593Z,99680.52
2018-12-02T04:48:13.590Z,99676.92
2018-12-02T04:50:42.624Z,99678.52
2018-12-02T04:53:11.778Z,99682.97
2018-12-02T04:55:40.817Z,99687.41
2018-12-02T04:58:10.260Z,99687.45
2018-12-02T05:00:39.354Z,99688.36
2018-12-02T05:03:08.649Z,99683.59
2018-12-02T05:05:37.815Z,99668.31
2018-12-02T05:08:07.560Z,99695.23
2018-12-02T05:10:36.789Z,99702.61
2018-12-02T05:13:06.384Z,99702.88
2018-12-02T05:15:35.541Z,99707.86
2018-12-02T05:18:04.671Z,99717.77
2018-12-02T05:20:33.811Z,99718.78
2018-12-02T05:23:02.920Z,99722.65
2018-12-02T05:25:31.904Z,99727.60
2018-12-02T05:28:01.119Z,99734.25
2018-12-02T05:30:30.164Z,99730.97
2018-12-02T05:32:59.216Z,99740.93
2018-12-02T05:35:28.516Z,99748.30
2018-12-02T05:37:57.674Z,99743.86
2018-12-02T05:40:26.765Z,99676.11
2018-12-02T05:42:56.275Z,99746.54
2018-12-02T05:45:25.508Z,99742.22
2018-12-02T05:47:54.610Z,99754.02
2018-12-02T05:50:24.630Z,99755.84
2018-12-02T05:52:56.541Z,99752.66
2018-12-02T05:55:27.903Z,99757.03
2018-12-02T05:57:57.711Z,99759.92
2018-12-02T06:00:26.788Z,99758.66
2018-12-02T06:02:55.921Z,99763.70
2018-12-02T06:05:24.956Z,99763.27
2018-12-02T06:07:54.100Z,99767.55
2018-12-02T06:10:23.865Z,99773.32
2018-12-02T06:12:52.901Z,99777.83
2018-12-02T06:15:22.381Z,99774.69
2018-12-02T06:17:51.785Z,99783.15
2018-12-02T06:20:21.762Z,99789.14
2018-12-02T06:22:51.605Z,99784.36
2018-12-02T06:25:20.670Z,99782.27
2018-12-02T06:27:49.744Z,99781.30
2018-12-02T06:30:20.716Z,99788.17
2018-12-02T06:32:51.056Z,99781.66
2018-12-02T06:35:20.177Z,99783.46
2018-12-02T06:37:49.344Z,99780.13
2018-12-02T06:40:20.662Z,99781.66
2018-12-02T06:42:49.970Z,99774.32
2018-12-02T06:45:19.099Z,99774.50
2018-12-02T06:47:48.328Z,99775.70
2018-12-02T06:50:21.341Z,99780.99
2018-12-02T06:52:50.519Z,99775.92
2018-12-02T06:55:28.981Z,99776.45
2018-12-02T06:58:05.478Z,99768.82
2018-12-02T07:00:44.143Z,99771.25
2018-12-02T07:03:49.420Z,99773.68
2018-12-02T07:06:18.998Z,99774.43
2018-12-02T07:08:48.067Z,99777.33
2018-12-02T07:11:17.576Z,99775.62
2018-12-02T07:13:46.773Z,99779.15
2018-12-02T07:16:15.869Z,99777.73
2018-12-02T07:18:46.396Z,99775.77
2018-12-02T07:21:17.711Z,99773.91
2018-12-02T07:23:49.129Z,99777.14
2018-12-02T07:26:18.173Z,99776.78
2018-12-02T07:28:47.215Z,99780.84
2018-12-02T07:31:16.632Z,99777.27
2018-12-02T07:33:45.767Z,99781.98
2018-12-02T07:36:15.006Z,99781.11
2018-12-02T07:38:48.735Z,99791.19
2018-12-02T07:41:17.955Z,99795.70
2018-12-02T07:43:47.045Z,99798.88
2018-12-02T07:46:16.169Z,99806.38
2018-12-02T07:48:45.287Z,99802.49
2018-12-02T07:51:14.340Z,99813.69
2018-12-02T07:53:44.211Z,99809.28
2018-12-02T07:56:13.593Z,99817.64
2018-12-02T07:58:42.816Z,99810.91
2018-12-02T08:01:11.944Z,99810.14
2018-12-02T08:03:41.107Z,99801.58
2018-12-02T08:06:10.299Z,99803.08
2018-12-02T08:08:39.497Z,99797.43
2018-12-02T08:11:08.587Z,99806.77
2018-12-02T08:13:37.683Z,99807.52
2018-12-02T08:16:07.101Z,99815.59
2018-12-02T08:18:36.106Z,99820.09
2018-12-02T08:21:05.240Z,99817.59
2018-12-02T08:23:35.193Z,99821.98
2018-12-02T08:26:04.179Z,99821.10
2018-12-02T08:28:33.304Z,99823.39
2018-12-02T08:31:02.351Z,99818.31
2018-12-02T08:33:31.473Z,99810.48
2018-12-02T08:36:00.719Z,99814.02
2018-12-02T08:38:29.854Z,99823.95
2018-12-02T08:40:59.034Z,99814.80
2018-12-02T08:43:28.465Z,99808.16
2018-12-02T08:45:57.979Z,99807.11
2018-12-02T08:48:27.088Z,99809.03
2018-12-02T08:50:56.620Z,99813.83
2018-12-02T08:53:25.929Z,99798.34
2018-12-02T08:55:55.109Z,99789.84
2018-12-02T08:58:24.382Z,99780.23
2018-12-02T09:00:53.737Z,99783.86
2018-12-02T09:03:22.875Z,99784.67
2018-12-02T09:05:52.012Z,99775.23
2018-12-02T09:08:21.224Z,99783.58
2018-12-02T09:10:51.153Z,99780.58
2018-12-02T09:13:20.187Z,99778.98
2018-12-02T09:15:49.397Z,99779.48
2018-12-02T09:18:18.606Z,99778.41
2018-12-02T09:20:47.611Z,99778.38
2018-12-02T09:23:16.796Z,99780.59
2018-12-02T09:25:45.909Z,99776.11
2018-12-02T09:28:15.003Z,99771.84
2018-12-02T09:30:44.177Z,99773.69
2018-12-02T09:33:13.742Z,99767.75
2018-12-02T09:35:42.815Z,99757.54
2018-12-02T09:38:12.036Z,99760.27
2018-12-02T09:40:41.086Z,99750.41
2018-12-02T09:43:10.162Z,99754.92
2018-12-02T09:45:39.339Z,99760.61
2018-12-02T09:48:08.464Z,99752.48
2018-12-02T09:50:37.768Z,99740.78
2018-12-02T09:53:07.996Z,99739.45
2018-12-02T09:55:41.146Z,99735.84
2018-12-02T09:58:12.113Z,99738.34
2018-12-02T10:00:42.254Z,99736.06
2018-12-02T10:03:11.383Z,99733.75
2018-12-02T10:05:41.229Z,99734.67
2018-12-02T10:08:10.455Z,99726.00
2018-12-02T10:10:39.505Z,99718.95
2018-12-02T10:13:11.146Z,99719.72
2018-12-02T10:15:41.431Z,99710.98
2018-12-02T10:18:10.553Z,99720.13
2018-12-02T10:20:39.634Z,99712.06
2018-12-02T10:23:09.087Z,99708.19
2018-12-02T10:25:38.199Z,99709.77
2018-12-02T10:28:08.141Z,99703.09
2018-12-02T10:30:37.541Z,99698.63
2018-12-02T10:33:06.905Z,99695.09
2018-12-02T10:35:36.015Z,99689.52
2018-12-02T10:38:05.187Z,99692.20
2018-12-02T10:40:34.369Z,99685.63
2018-12-02T10:43:03.566Z,99687.92
2018-12-02T10:45:32.604Z,99687.45
2018-12-02T10:48:02.152Z,99686.38
2018-12-02T10:50:35.062Z,99679.83
2018-12-02T10:53:08.486Z,99673.09
2018-12-02T10:55:40.918Z,99662.58
2018-12-02T10:58:11.686Z,99667.55
2018-12-02T11:00:46.402Z,99665.25
2018-12-02T11:03:15.495Z,99658.11
2018-12-02T11:05:44.527Z,99657.40
2018-12-02T11:08:13.677Z,99649.94
2018-12-02T11:10:42.770Z,99657.02
2018-12-02T11:13:11.955Z,99649.38
2018-12-02T11:15:41.809Z,99653.22
2018-12-02T11:18:12.404Z,99646.06
2018-12-02T11:20:41.554Z,99639.84
2018-12-02T11:23:10.687Z,99637.84
2018-12-02T11:25:39.827Z,99634.41
2018-12-02T11:28:09.892Z,99634.00
2018-12-02T11:30:39.218Z,99632.63
2018-12-02T11:33:08.805Z,99629.54
2018-12-02T11:35:41.046Z,99617.73
2018-12-02T11:38:10.284Z,99620.73
2018-12-02T11:40:40.256Z,99619.55
2018-12-02T11:43:10.013Z,99609.73
2018-12-02T11:45:39.114Z,99606.89
2018-12-02T11:48:09.148Z,99607.23
2018-12-02T11:50:38.881Z,99603.34
2018-12-02T11:53:08.223Z,99596.17
2018-12-02T11:55:37.272Z,99603.77
2018-12-02T11:58:06.864Z,99596.49
2018-12-02T12:00:37.611Z,99597.02
2018-12-02T12:03:06.860Z,99591.47
2018-12-02T12:05:36.523Z,99595.45
2018-12-02T12:08:07.101Z,99596.02
2018-12-02T12:10:36.159Z,99593.88
2018-12-02T12:13:05.564Z,99587.30
2018-12-02T12:15:34.891Z,99587.06
2018-12-02T12:18:03.972Z,99588.63
2018-12-02T12:20:41.938Z,99586.77
2018-12-02T12:23:12.679Z,99582.72
2018-12-02T12:25:41.708Z,99580.58
2018-12-02T12:28:10.888Z,99579.95
2018-12-02T12:30:40.100Z,99579.17
2018-12-02T12:33:10.266Z,99571.70
2018-12-02T12:35:45.620Z,99577.66
2018-12-02T12:38:14.695Z,99570.38
2018-12-02T12:40:44.191Z,99573.76
2018-12-02T12:43:19.504Z,99574.16
2018-12-02T12:45:48.581Z,99573.20
2018-12-02T12:48:17.656Z,99564.29
2018-12-02T12:50:46.814Z,99570.46
2018-12-02T12:53:15.874Z,99568.61
2018-12-02T12:55:50.696Z,99568.11
2018-12-02T12:58:15.181Z,99570.27
2018-12-02T13:00:44.250Z,99571.16
2018-12-02T13:03:13.359Z,99560.51
2018-12-02T13:05:42.473Z,99562.69
2018-12-02T13:08:13.111Z,99568.67
2018-12-02T13:10:42.405Z,99564.04
2018-12-02T13:13:11.500Z,99572.53
2018-12-02T13:15:40.651Z,99565.53
2018-12-02T13:18:10.760Z,99564.68
2018-12-02T13:20:43.294Z,99567.66
2018-12-02T13:23:12.375Z,99568.95
2018-12-02T13:25:41.466Z,99562.91
2018-12-02T13:28:10.664Z,99563.52
2018-12-02T13:30:39.712Z,99567.52
2018-12-02T13:33:09.033Z,99562.06
2018-12-02T13:35:38.980Z,99567.72
2018-12-02T13:38:08.408Z,99563.44
2018-12-02T13:40:38.833Z,99563.52
2018-12-02T13:43:14.593Z,99562.05
2018-12-02T13:45:43.826Z,99567.16
2018-12-02T13:48:12.883Z,99560.30
2018-12-02T13:50:42.075Z,99562.96
2018-12-02T13:53:11.187Z,99559.53
2018-12-02T13:55:40.271Z,99560.94
2018-12-02T13:58:09.643Z,99555.25
2018-12-02T14:00:40.706Z,99555.14
2018-12-02T14:03:12.567Z,99554.58
2018-12-02T14:05:49.250Z,99549.91
2018-12-02T14:08:18.325Z,99560.39
2018-12-02T14:10:48.585Z,99556.95
2018-12-02T14:13:20.326Z,99548.66
2018-12-02T14:16:30.617Z,99543.87
2018-12-02T14:19:03.399Z,99547.03
2018-12-02T14:21:32.563Z,99549.02
2018-12-02T14:24:01.738Z,99549.66
2018-12-02T14:26:31.060Z,99552.02
2018-12-02T14:29:03.166Z,99550.19
2018-12-02T14:31:34.638Z,99550.01
2018-12-02T14:34:03.855Z,99550.47
2018-12-02T14:36:32.989Z,99553.46
2018-12-02T14:39:02.689Z,99558.34
2018-12-02T14:41:31.786Z,99555.94
2018-12-02T14:44:00.880Z,99556.27
2018-12-02T14:46:30.068Z,99551.56
2018-12-02T14:48:59.185Z,99552.17
2018-12-02T14:51:28.206Z,99553.63
2018-12-02T14:53:57.427Z,99559.59
2018-12-02T14:56:26.587Z,99560.62
2018-12-02T14:58:55.765Z,99567.52
2018-12-02T15:01:24.910Z,99564.70
2018-12-02T15:03:53.957Z,99563.88
2018-12-02T15:06:23.133Z,99562.09
2018-12-02T15:08:52.244Z,99563.42
2018-12-02T15:11:21.473Z,99556.18
2018-12-02T15:13:50.527Z,99554.34
2018-12-02T15:16:19.775Z,99550.08
2018-12-02T15:18:48.926Z,99554.06
2018-12-02T15:21:18.066Z,99551.55
2018-12-02T15:23:47.226Z,99557.45
2018-12-02T15:26:16.429Z,99563.31
2018-12-02T15:28:45.511Z,99556.69
2018-12-02T15:31:14.715Z,99561.88
2018-12-02T15:33:43.724Z,99561.28
2018-12-02T15:36:12.904Z,99560.30
2018-12-02T15:38:41.990Z,99562.98
2018-12-02T15:41:11.204Z,99566.81
2018-12-02T15:43:40.216Z,99563.94
2018-12-02T15:46:09.346Z,99561.73
2018-12-02T15:48:38.447Z,99567.80
2018-12-02T15:51:07.681Z,99575.03
2018-12-02T15:53:37.049Z,99565.28
2018-12-02T15:56:06.489Z,99574.41
2018-12-02T15:58:35.531Z,99569.47
2018-12-02T16:01:04.723Z,99579.02
2018-12-02T16:03:33.804Z,99577.94
2018-12-02T16:06:02.853Z,99582.37
2018-12-02T16:08:31.974Z,99576.27
2018-12-02T16:11:00.997Z,99577.23
2018-12-02T16:13:30.040Z,99576.72
2018-12-02T16:15:59.128Z,99585.64
2018-12-02T16:18:28.248Z,99585.52
2018-12-02T16:20:57.361Z,99582.75
2018-12-02T16:23:27.670Z,99584.44
2018-12-02T16:25:56.878Z,99589.61
2018-12-02T16:28:25.989Z,99584.77
2018-12-02T16:30:55.976Z,99560.47
2018-12-02T16:33:25.024Z,99593.81
2018-12-02T16:35:54.153Z,99596.19
2018-12-02T16:38:23.322Z,99597.09
2018-12-02T16:40:52.499Z,99599.36
2018-12-02T16:43:21.619Z,99598.77
2018-12-02T16:45:51.017Z,99603.73
2018-12-02T16:48:20.040Z,99603.00
2018-12-02T16:50:49.515Z,99604.08
2018-12-02T16:53:22.964Z,99597.84
2018-12-02T16:55:56.771Z,99603.39
2018-12-02T16:58:42.208Z,99608.81
2018-12-02T17:01:17.658Z,99605.30
2018-12-02T17:03:47.152Z,99607.11
2018-12-02T17:06:16.209Z,99607.84
2018-12-02T17:08:45.226Z,99607.70
2018-12-02T17:11:15.293Z,99614.76
2018-12-02T17:13:44.413Z,99609.10
2018-12-02T17:16:13.432Z,99610.98
2018-12-02T17:18:42.557Z,99612.73
2018-12-02T17:21:11.550Z,99606.45
2018-12-02T17:23:40.727Z,99616.82
2018-12-02T17:26:09.852Z,99614.75
2018-12-02T17:28:39.343Z,99615.16
2018-12-02T17:31:11.329Z,99612.40
2018-12-02T17:33:40.385Z,99624.69
2018-12-02T17:36:09.421Z,99624.09
2018-12-02T17:38:38.948Z,99624.14
2018-12-02T17:41:10.117Z,99631.03
2018-12-02T17:43:39.213Z,99624.55
2018-12-02T17:46:08.900Z,99623.00
2018-12-02T17:48:37.995Z,99626.56
2018-12-02T17:51:08.112Z,99624.88
2018-12-02T17:53:38.108Z,99622.50
2018-12-02T17:56:07.297Z,99619.83
2018-12-02T17:58:36.440Z,99629.84
2018-12-02T18:01:06.023Z,99624.28
2018-12-02T18:03:35.530Z,99621.72
2018-12-02T18:06:04.604Z,99630.13
2018-12-02T18:08:33.597Z,99627.37
2018-12-02T18:11:02.765Z,99627.93
2018-12-02T18:13:31.766Z,99630.30
2018-12-02T18:16:00.849Z,99629.66
2018-12-02T18:18:29.907Z,99625.56
2018-12-02T18:20:58.907Z,99626.30
2018-12-02T18:23:28.565Z,99625.08
2018-12-02T18:25:57.615Z,99627.38
2018-12-02T18:28:26.724Z,99628.91
2018-12-02T18:30:55.907Z,99631.03
2018-12-02T18:33:25.369Z,99630.44
2018-12-02T18:35:57.961Z,99627.19
2018-12-02T18:38:28.033Z,99639.42
2018-12-02T18:41:03.954Z,99631.23
2018-12-02T18:43:33.029Z,99627.05
2018-12-02T18:46:02.895Z,99635.61
2018-12-02T18:48:34.082Z,99634.77
2018-12-02T18:51:04.262Z,99633.72
2018-12-02T18:53:34.310Z,99631.03
2018-12-02T18:58:53.726Z,99630.13
2018-12-02T19:01:22.940Z,99635.93
2018-12-02T19:03:52.343Z,99631.31
2018-12-02T19:06:21.757Z,99637.71
2018-12-02T19:08:50.849Z,99641.88
2018-12-02T19:11:21.535Z,99634.75
2018-12-02T19:13:49.744Z,99635.00
2018-12-02T19:16:18.973Z,99633.14
2018-12-02T19:18:49.363Z,99633.62
2018-12-02T19:21:33.144Z,99639.08
2018-12-02T19:24:02.272Z,99638.30
2018-12-02T19:26:31.365Z,99634.47
2018-12-02T19:29:00.440Z,99629.45
2018-12-02T19:31:29.676Z,99635.79
2018-12-02T19:33:58.928Z,99642.46
2018-12-02T19:36:31.992Z,99642.34
2018-12-02T19:39:01.041Z,99644.34
2018-12-02T19:41:31.416Z,99644.70
2018-12-02T19:44:00.590Z,99646.49
2018-12-02T19:46:29.791Z,99643.94
2018-12-02T19:48:58.960Z,99653.66
2018-12-02T19:51:28.001Z,99643.61
2018-12-02T19:53:57.137Z,99644.95
2018-12-02T19:56:26.237Z,99646.91
2018-12-02T19:58:55.365Z,99642.09
2018-12-02T20:01:24.452Z,99642.01
2018-12-02T20:03:53.560Z,99633.67
2018-12-02T20:06:22.660Z,99639.66
2018-12-02T20:08:51.678Z,99637.47
2018-12-02T20:11:20.795Z,99636.18
2018-12-02T20:13:49.855Z,99639.87
2018-12-02T20:16:19.781Z,99631.67
2018-12-02T20:18:48.990Z,99625.63
2018-12-02T20:21:19.875Z,99630.53
2018-12-02T20:23:53.907Z,99627.87
2018-12-02T20:26:23.000Z,99625.48
2018-12-02T20:28:54.154Z,99626.80
2018-12-02T20:31:25.328Z,99625.92
2018-12-02T20:33:54.425Z,99618.55
2018-12-02T20:36:23.527Z,99625.38
2018-12-02T20:38:52.629Z,99626.39
2018-12-02T20:41:21.700Z,99626.89
2018-12-02T20:43:50.852Z,99624.52
2018-12-02T20:46:19.942Z,99623.31
2018-12-02T20:48:49.052Z,99624.67
2018-12-02T20:51:18.121Z,99624.05
2018-12-02T20:53:47.348Z,99630.70
2018-12-02T20:56:16.470Z,99627.20
2018-12-02T20:58:45.634Z,99624.18
2018-12-02T21:01:14.756Z,99629.35
2018-12-02T21:03:46.255Z,99633.66
2018-12-02T21:06:16.607Z,99634.52
2018-12-02T21:08:45.675Z,99635.42
2018-12-02T21:11:14.746Z,99630.59
2018-12-02T21:13:43.830Z,99627.00
2018-12-02T21:16:12.983Z,99632.30
2018-12-02T21:18:42.083Z,99635.73
2018-12-02T21:21:11.134Z,99632.52
2018-12-02T21:23:40.206Z,99628.17
2018-12-02T21:26:10.630Z,99620.14
2018-12-02T21:28:40.747Z,99620.52
2018-12-02T21:31:09.879Z,99619.59
2018-12-02T21:33:38.980Z,99613.57
2018-12-02T21:36:08.183Z,99601.35
2018-12-02T21:38:37.473Z,99598.70
2018-12-02T21:41:06.742Z,99594.16
2018-12-02T21:43:35.932Z,99593.64
2018-12-02T21:46:05.435Z,99585.75
2018-12-02T21:48:34.507Z,99585.20
2018-12-02T21:51:03.513Z,99577.52
2018-12-02T21:53:32.734Z,99576.21
2018-12-02T21:56:01.712Z,99571.76
2018-12-02T21:58:30.704Z,99570.14
2018-12-02T22:01:04.790Z,99566.17
2018-12-02T22:03:33.809Z,99565.98
2018-12-02T22:06:02.838Z,99564.86
2018-12-02T22:08:31.889Z,99567.63
2018-12-02T22:11:00.903Z,99569.08
2018-12-02T22:13:29.947Z,99574.08
2018-12-02T22:15:59.016Z,99586.78
2018-12-02T22:18:28.114Z,99583.64
2018-12-02T22:20:57.141Z,99586.47
2018-12-02T22:23:26.219Z,99584.45
2018-12-02T22:25:55.259Z,99591.42
2018-12-02T22:28:24.295Z,99595.75
2018-12-02T22:30:53.390Z,99597.60
2018-12-02T22:33:22.396Z,99593.30
2018-12-02T22:35:52.102Z,99591.31
2018-12-02T22:38:21.090Z,99596.64
2018-12-02T22:40:50.158Z,99604.53
2018-12-02T22:43:19.197Z,99606.55
2018-12-02T22:45:48.272Z,99600.03
2018-12-02T22:48:17.376Z,99595.32
2018-12-02T22:50:46.415Z,99596.73
2018-12-02T22:53:15.422Z,99598.53
2018-12-02T22:55:44.518Z,99596.16
2018-12-02T22:58:13.628Z,99592.81
2018-12-02T23:00:48.316Z,99584.20
2018-12-02T23:03:17.304Z,99582.00
2018-12-02T23:05:47.453Z,99576.97
2018-12-02T23:08:16.542Z,99576.14
2018-12-02T23:10:45.639Z,99576.95
2018-12-02T23:13:14.877Z,99576.84
2018-12-02T23:15:43.889Z,99571.60
2018-12-02T23:18:13.737Z,99574.29
2018-12-02T23:20:42.843Z,99575.97
2018-12-02T23:23:11.931Z,99580.56
2018-12-02T23:25:41.051Z,99584.99
2018-12-02T23:28:10.108Z,99582.36
2018-12-02T23:30:39.095Z,99576.31
2018-12-02T23:33:08.265Z,99580.00
2018-12-02T23:35:37.312Z,99582.18
2018-12-02T23:38:09.551Z,99582.45
2018-12-02T23:40:38.616Z,99577.91
2018-12-02T23:43:07.609Z,99579.41
2018-12-02T23:45:36.651Z,99579.63
2018-12-02T23:48:05.671Z,99577.86
2018-12-02T23:50:34.807Z,99578.13
2018-12-02T23:53:03.878Z,99571.48
2018-12-02T23:55:32.961Z,99574.78
2018-12-02T23:58:01.978Z,99572.56
